KGUC

Gunnison-Crested Butte Regional Airport

Gunnison, Colorado, USA
KGUC 210531Z 2106/2206 02005KT P6SM SKC FM211400 00000KT P6SM SKC FM211600 24006KT P6SM FEW250 FM211800 23010G15KT P6SM FEW250 FM212000 28013G22KT P6SM FEW250 FM220200 35004KT P6SM FEW250
Issued Valid From Valid To
Jun-21 @ 05:31 UTC
(5 hours ago)
Jun-21 @ 06:00 UTC
(4 hours ago)
Jun-22 @ 06:00 UTC
(in 20 hours)
Jun-21 @ 06:00 to Jun-21 @ 14:00
KGUC 210531Z 2106/2206 02005KT P6SM SKC
Wind Visibility Clouds
20° at 5 knots Greater than 6 miles
  • Clear skies
From Jun-21 @ 14:00 to Jun-21 @ 16:00
FM211400 00000KT P6SM SKC
Visibility Clouds
Greater than 6 miles
  • Clear skies
From Jun-21 @ 16:00 to Jun-21 @ 18:00
FM211600 24006KT P6SM FEW250
Wind Visibility Clouds
240° at 6 knots Greater than 6 miles
  • Few at 25,000' AGL
From Jun-21 @ 18:00 to Jun-21 @ 20:00
FM211800 23010G15KT P6SM FEW250
Wind Visibility Clouds
230° at 10 knots
 Gusting to 15 knots
Greater than 6 miles
  • Few at 25,000' AGL
From Jun-21 @ 20:00 to Jun-22 @ 02:00
FM212000 28013G22KT P6SM FEW250
Wind Visibility Clouds
280° at 13 knots
 Gusting to 22 knots
Greater than 6 miles
  • Few at 25,000' AGL
From Jun-22 @ 02:00 to Jun-22 @ 06:00
FM220200 35004KT P6SM FEW250
Wind Visibility Clouds
350° at 4 knots Greater than 6 miles
  • Few at 25,000' AGL
KGUC 210531Z 2106/2206 02005KT P6SM SKC FM211400 00000KT P6SM SKC FM211600 24006KT P6SM FEW250 FM211800 23010G15KT P6SM FEW250 FM212000 28013G22KT P6SM FEW250 FM220200 35004KT P6SM FEW250
Issued Jun-21 @ 05:31 UTC
(5 hours ago)
Valid From Jun-21 @ 06:00 UTC
(4 hours ago)
Valid To Jun-22 @ 06:00 UTC
(in 20 hours)
Jun-21 @ 06:00 - Jun-21 @ 14:00
Wind Visibility
20° at 5 knots Greater than 6 miles
Clouds
  • Clear skies
From Jun-21 @ 14:00 - Jun-21 @ 16:00
Clouds
  • Clear skies
From Jun-21 @ 16:00 - Jun-21 @ 18:00
Wind Visibility
240° at 6 knots Greater than 6 miles
Clouds
  • Few at 25,000' AGL
From Jun-21 @ 18:00 - Jun-21 @ 20:00
Wind Visibility
230° at 10 knots
 Gusting to 15 knots
Greater than 6 miles
Clouds
  • Few at 25,000' AGL
From Jun-21 @ 20:00 - Jun-22 @ 02:00
Wind Visibility
280° at 13 knots
 Gusting to 22 knots
Greater than 6 miles
Clouds
  • Few at 25,000' AGL
From Jun-22 @ 02:00 - Jun-22 @ 06:00
Wind Visibility
350° at 4 knots Greater than 6 miles
Clouds
  • Few at 25,000' AGL